Time;durP1;ratioP1;P1;durP2;ratioP2;P2;SDS_P1;SDS_P2;PMS_P1;PMS_P2;Temp;Humidity;BMP_temperature;BMP_pressure;BME280_temperature;BME280_humidity;BME280_pressure;Samples;Min_cycle;Max_cycle;Signal;HPM_P1;HPM_P2
2023/12/17 00:00:00;;;;;;;15.60;10.67;;;9.90;99.90;;;;;;10331434;28;20256;-69
2023/12/17 00:05:04;;;;;;;16.02;11.57;;;9.90;99.90;;;;;;10331171;28;20229;-67
2023/12/17 00:10:08;;;;;;;15.27;10.80;;;9.80;99.90;;;;;;10331056;28;20339;-68
2023/12/17 00:15:13;;;;;;;15.07;11.25;;;9.80;99.90;;;;;;10331081;28;20237;-67
2023/12/17 00:20:17;;;;;;;17.80;10.90;;;9.80;99.90;;;;;;10227656;28;20256;-68
2023/12/17 00:25:20;;;;;;;15.13;12.20;;;9.80;99.90;;;;;;10328178;28;20249;-68
2023/12/17 00:30:25;;;;;;;16.87;11.10;;;9.80;99.90;;;;;;10323417;28;20284;-68
2023/12/17 00:35:29;;;;;;;18.13;11.60;;;9.80;99.90;;;;;;10329257;28;20244;-69
2023/12/17 00:40:33;;;;;;;15.70;10.80;;;9.80;99.90;;;;;;10330315;28;20260;-69
2023/12/17 00:45:38;;;;;;;14.13;11.27;;;9.80;99.90;;;;;;10329459;28;20280;-68
2023/12/17 00:50:41;;;;;;;15.37;11.70;;;9.80;99.90;;;;;;10329257;28;20249;-68
2023/12/17 00:55:45;;;;;;;16.57;11.57;;;9.80;99.90;;;;;;10329066;28;20225;-68
2023/12/17 01:00:50;;;;;;;15.82;11.90;;;9.80;99.90;;;;;;10329525;28;20686;-68
2023/12/17 01:05:58;;;;;;;15.17;11.63;;;9.80;99.90;;;;;;10324470;28;20774;-69
2023/12/17 01:11:02;;;;;;;17.43;11.67;;;9.80;99.90;;;;;;10330026;28;20567;-68
2023/12/17 01:16:08;;;;;;;14.20;11.03;;;9.80;99.90;;;;;;10328941;28;20260;-68
2023/12/17 01:21:12;;;;;;;15.60;11.60;;;9.80;99.90;;;;;;10327891;28;20256;-68
2023/12/17 01:26:20;;;;;;;16.03;12.10;;;9.80;99.90;;;;;;10328405;28;20214;-68
2023/12/17 01:31:25;;;;;;;14.57;11.20;;;9.70;99.90;;;;;;10321268;28;20221;-68
2023/12/17 01:36:29;;;;;;;12.53;11.03;;;9.80;99.90;;;;;;10328573;28;20240;-68
2023/12/17 01:41:32;;;;;;;15.70;11.30;;;9.80;99.90;;;;;;10327209;28;20725;-68
2023/12/17 01:46:38;;;;;;;16.15;10.88;;;9.80;99.90;;;;;;10328658;28;20206;-68
2023/12/17 01:51:43;;;;;;;16.13;12.03;;;9.80;99.90;;;;;;10328347;28;20740;-68
2023/12/17 01:56:55;;;;;;;13.43;11.57;;;9.80;99.90;;;;;;10327470;28;20201;-69
2023/12/17 02:02:03;;;;;;;15.23;12.30;;;9.80;99.90;;;;;;10258117;28;20833;-68
2023/12/17 02:07:07;;;;;;;14.67;11.80;;;9.80;99.90;;;;;;10325779;28;20231;-69
2023/12/17 02:12:23;;;;;;;14.15;12.43;;;9.80;99.90;;;;;;10334206;28;20230;-69
2023/12/17 02:17:30;;;;;;;16.23;12.37;;;9.80;99.90;;;;;;10336023;28;20248;-69
2023/12/17 02:22:35;;;;;;;15.07;13.30;;;9.90;99.90;;;;;;10303420;28;20225;-68
2023/12/17 02:27:43;;;;;;;15.57;12.60;;;9.80;99.90;;;;;;10310259;28;20209;-68
2023/12/17 02:32:47;;;;;;;14.47;12.87;;;9.80;99.90;;;;;;10335656;28;20367;-68
2023/12/17 02:37:50;;;;;;;14.60;12.10;;;9.80;99.90;;;;;;10335237;28;20205;-68
2023/12/17 02:42:55;;;;;;;13.73;12.30;;;9.90;99.90;;;;;;10334543;28;20600;-68
2023/12/17 02:47:59;;;;;;;13.50;12.10;;;9.90;99.90;;;;;;10332823;28;20213;-68
2023/12/17 02:53:03;;;;;;;17.93;12.97;;;9.90;99.90;;;;;;10332891;28;20230;-68
2023/12/17 02:58:08;;;;;;;15.00;12.50;;;9.90;99.90;;;;;;10334795;28;20267;-68
2023/12/17 03:03:11;;;;;;;14.93;12.47;;;9.80;99.90;;;;;;10332922;28;20226;-68
2023/12/17 03:08:16;;;;;;;14.60;12.20;;;9.80;99.90;;;;;;10333959;28;20558;-68
2023/12/17 03:13:21;;;;;;;14.40;12.67;;;9.80;99.90;;;;;;10333376;28;20256;-68
2023/12/17 03:18:24;;;;;;;15.43;12.23;;;9.90;99.90;;;;;;10332310;28;20213;-68
2023/12/17 03:23:28;;;;;;;13.23;11.37;;;9.80;99.90;;;;;;10333117;28;20591;-68
2023/12/17 03:28:33;;;;;;;14.23;12.00;;;9.80;99.90;;;;;;10332464;28;20284;-68
2023/12/17 03:33:37;;;;;;;15.17;12.00;;;9.80;99.90;;;;;;10331347;28;20229;-68
2023/12/17 03:38:41;;;;;;;14.87;12.73;;;9.80;99.90;;;;;;10332929;28;20206;-68
2023/12/17 03:43:45;;;;;;;14.63;12.20;;;9.80;99.90;;;;;;10332333;28;20222;-68
2023/12/17 03:48:49;;;;;;;15.03;11.70;;;9.80;99.90;;;;;;10332092;28;20602;-69
2023/12/17 03:53:53;;;;;;;12.93;11.50;;;9.80;99.90;;;;;;10329572;28;20226;-68
2023/12/17 03:58:58;;;;;;;16.20;12.80;;;9.80;99.90;;;;;;10331966;28;20672;-68
2023/12/17 04:04:02;;;;;;;15.33;11.93;;;9.80;99.90;;;;;;10330975;28;20233;-68
2023/12/17 04:09:05;;;;;;;13.37;11.97;;;9.80;99.90;;;;;;10323856;28;20229;-68
2023/12/17 04:14:10;;;;;;;13.80;11.83;;;9.80;99.90;;;;;;10331321;28;20233;-68
2023/12/17 04:19:14;;;;;;;15.03;12.23;;;9.80;99.90;;;;;;10331836;28;20260;-68
2023/12/17 04:24:18;;;;;;;15.93;12.93;;;9.70;99.90;;;;;;10331150;28;20226;-68
2023/12/17 04:29:23;;;;;;;14.57;12.00;;;9.70;99.90;;;;;;10331293;28;20225;-67
2023/12/17 04:34:27;;;;;;;15.53;13.03;;;9.70;99.90;;;;;;10331429;28;20229;-68
2023/12/17 04:39:30;;;;;;;16.87;12.63;;;9.70;99.90;;;;;;10321433;28;20260;-68
2023/12/17 04:44:35;;;;;;;16.80;13.50;;;9.70;99.90;;;;;;10330626;28;20271;-68
2023/12/17 04:49:39;;;;;;;16.43;13.37;;;9.70;99.90;;;;;;10330530;28;20272;-68
2023/12/17 04:54:43;;;;;;;15.50;13.43;;;9.70;99.90;;;;;;10325851;28;20230;-67
2023/12/17 04:59:48;;;;;;;15.83;14.17;;;9.70;99.90;;;;;;10329350;28;20209;-68
2023/12/17 05:04:52;;;;;;;16.90;13.80;;;9.70;99.90;;;;;;10329520;28;20217;-68
2023/12/17 05:09:57;;;;;;;16.43;13.60;;;9.70;99.90;;;;;;10320600;28;20309;-68
2023/12/17 05:15:02;;;;;;;15.73;14.10;;;9.70;99.90;;;;;;10329270;28;20237;-67
2023/12/17 05:20:09;;;;;;;16.53;13.90;;;9.70;99.90;;;;;;10329488;28;20260;-67
2023/12/17 05:25:12;;;;;;;14.67;13.17;;;9.70;99.90;;;;;;10328034;28;20779;-68
2023/12/17 05:30:20;;;;;;;17.33;14.23;;;9.70;99.90;;;;;;10329155;28;20641;-67
2023/12/17 05:35:24;;;;;;;16.20;14.10;;;9.70;99.90;;;;;;10328397;28;20237;-68
2023/12/17 05:40:27;;;;;;;16.83;13.97;;;9.70;99.90;;;;;;10333256;28;20204;-68
2023/12/17 05:45:33;;;;;;;14.67;12.83;;;9.70;99.90;;;;;;10336515;28;20700;-66
2023/12/17 05:50:37;;;;;;;17.00;13.80;;;9.70;99.90;;;;;;10331004;28;20209;-67
2023/12/17 05:55:40;;;;;;;17.03;13.83;;;9.60;99.90;;;;;;10329605;28;20237;-66
2023/12/17 06:00:45;;;;;;;16.00;13.23;;;9.60;99.90;;;;;;10332520;28;20209;-66
2023/12/17 06:05:49;;;;;;;16.00;13.47;;;9.60;99.90;;;;;;10335595;28;20279;-66
2023/12/17 06:10:53;;;;;;;16.97;12.77;;;9.60;99.90;;;;;;10336465;28;20683;-67
2023/12/17 06:15:57;;;;;;;15.33;12.93;;;9.70;99.90;;;;;;10291646;28;20655;-67
2023/12/17 06:21:01;;;;;;;15.23;13.20;;;9.70;99.90;;;;;;10336036;28;20260;-66
2023/12/17 06:26:06;;;;;;;15.57;13.10;;;9.70;99.90;;;;;;10335978;28;20233;-67
2023/12/17 06:31:11;;;;;;;15.00;12.33;;;9.60;99.90;;;;;;10332099;28;20210;-67
2023/12/17 06:36:14;;;;;;;13.63;12.17;;;9.60;99.90;;;;;;10330586;28;20230;-68
2023/12/17 06:41:18;;;;;;;14.10;12.60;;;9.60;99.90;;;;;;10325709;28;20225;-67
2023/12/17 06:46:23;;;;;;;14.20;11.37;;;9.60;99.90;;;;;;10328696;28;20193;-67
2023/12/17 06:51:27;;;;;;;13.80;12.30;;;9.60;99.90;;;;;;10324326;28;20230;-67
2023/12/17 06:56:31;;;;;;;14.03;11.60;;;9.60;99.90;;;;;;10323378;28;20281;-67
2023/12/17 07:01:36;;;;;;;15.37;12.40;;;9.60;99.90;;;;;;10326135;28;20610;-67
2023/12/17 07:06:40;;;;;;;14.13;11.50;;;9.60;99.90;;;;;;10326924;28;20190;-66
2023/12/17 07:11:43;;;;;;;11.73;10.37;;;9.60;99.90;;;;;;10309630;28;20226;-66
2023/12/17 07:16:48;;;;;;;12.67;11.07;;;9.60;99.90;;;;;;10321837;28;20257;-67
2023/12/17 07:21:52;;;;;;;13.33;10.80;;;9.50;99.90;;;;;;10322837;28;20249;-67
2023/12/17 07:26:56;;;;;;;11.37;10.10;;;9.50;99.90;;;;;;10319871;28;20240;-67
2023/12/17 07:32:01;;;;;;;12.10;10.50;;;9.50;99.90;;;;;;10318008;28;20284;-67
2023/12/17 07:37:04;;;;;;;11.37;10.13;;;9.50;99.90;;;;;;10319871;28;20261;-68
2023/12/17 07:42:08;;;;;;;12.10;10.80;;;9.50;99.90;;;;;;10322599;28;20282;-68
2023/12/17 07:47:14;;;;;;;13.37;11.40;;;9.50;99.90;;;;;;10324714;28;20205;-68
2023/12/17 07:52:17;;;;;;;16.37;14.77;;;9.50;99.90;;;;;;10316341;28;20943;-66
2023/12/17 07:57:21;;;;;;;12.67;11.20;;;9.70;99.90;;;;;;10321455;28;20833;-66
2023/12/17 08:02:26;;;;;;;13.17;10.70;;;9.70;99.90;;;;;;10317569;28;20225;-68
2023/12/17 08:07:30;;;;;;;12.43;10.30;;;9.70;99.90;;;;;;10316895;28;20217;-66
2023/12/17 08:12:34;;;;;;;11.07;9.43;;;9.60;99.90;;;;;;10323386;28;20226;-67
2023/12/17 08:17:39;;;;;;;10.00;8.73;;;9.50;99.90;;;;;;10323385;28;20221;-68
2023/12/17 08:22:43;;;;;;;9.90;8.60;;;9.50;99.90;;;;;;10321281;28;20260;-67
2023/12/17 08:27:47;;;;;;;8.90;8.00;;;9.50;99.90;;;;;;10322506;28;20721;-67
2023/12/17 08:32:55;;;;;;;8.80;7.40;;;9.50;99.90;;;;;;10293543;28;20233;-65
2023/12/17 08:38:03;;;;;;;10.57;7.47;;;9.50;99.90;;;;;;10302506;28;20568;-67
2023/12/17 08:43:08;;;;;;;6.33;5.57;;;9.40;99.90;;;;;;10316278;28;20217;-67
2023/12/17 08:48:13;;;;;;;6.57;5.13;;;9.40;99.90;;;;;;10288887;28;20206;-66
2023/12/17 08:53:19;;;;;;;5.83;4.50;;;9.40;99.90;;;;;;10288133;28;20222;-66
2023/12/17 08:58:23;;;;;;;4.67;3.90;;;9.30;99.90;;;;;;10330292;28;20206;-67
2023/12/17 09:03:28;;;;;;;4.13;3.73;;;9.20;99.90;;;;;;10329987;28;20224;-66
2023/12/17 09:08:31;;;;;;;4.20;3.80;;;9.20;99.90;;;;;;10329492;28;20665;-68
2023/12/17 09:13:35;;;;;;;5.57;3.93;;;9.20;99.90;;;;;;10327611;28;20217;-66
2023/12/17 09:18:41;;;;;;;4.97;4.00;;;9.20;99.90;;;;;;10330594;28;20209;-66
2023/12/17 09:23:45;;;;;;;4.53;4.13;;;9.20;99.90;;;;;;10328036;28;20279;-67
2023/12/17 09:28:49;;;;;;;4.60;4.07;;;9.10;99.90;;;;;;10321093;28;20262;-68
2023/12/17 09:33:57;;;;;;;5.63;4.90;;;9.10;99.90;;;;;;10192062;28;21101;-68
2023/12/17 09:39:01;;;;;;;7.53;5.90;;;9.10;99.90;;;;;;10326975;28;20689;-67
2023/12/17 09:44:05;;;;;;;7.33;6.40;;;9.10;99.90;;;;;;10311147;28;20684;-67
2023/12/17 09:49:10;;;;;;;9.77;8.20;;;9.10;99.90;;;;;;10309626;28;20234;-67
2023/12/17 09:54:14;;;;;;;11.53;8.03;;;9.10;99.90;;;;;;10310772;28;20326;-66
2023/12/17 09:59:18;;;;;;;10.93;8.67;;;9.10;99.90;;;;;;10314931;28;20209;-66
2023/12/17 10:04:25;;;;;;;11.43;8.87;;;9.10;99.90;;;;;;10303133;28;20333;-66
2023/12/17 10:09:31;;;;;;;13.90;9.40;;;9.20;99.90;;;;;;10314387;28;20210;-66
2023/12/17 10:14:35;;;;;;;12.60;9.23;;;9.20;99.90;;;;;;10309093;28;20600;-66
2023/12/17 10:19:40;;;;;;;13.90;9.57;;;9.20;99.90;;;;;;10317004;28;20278;-66
2023/12/17 10:24:44;;;;;;;14.33;10.10;;;9.20;99.90;;;;;;10318360;28;20263;-67
2023/12/17 10:29:50;;;;;;;12.93;9.80;;;9.20;99.90;;;;;;10322207;28;20214;-67
2023/12/17 10:34:55;;;;;;;15.63;10.90;;;9.20;99.90;;;;;;10288044;28;20645;-68
2023/12/17 10:40:00;;;;;;;14.20;10.87;;;9.20;99.90;;;;;;10321618;28;20662;-66
2023/12/17 10:45:07;;;;;;;14.50;10.70;;;9.20;99.90;;;;;;10316692;28;20214;-67
2023/12/17 10:50:12;;;;;;;15.20;12.07;;;9.20;99.90;;;;;;10316512;28;20267;-66
2023/12/17 10:55:16;;;;;;;18.10;12.97;;;9.20;99.90;;;;;;10317217;28;20275;-64
2023/12/17 11:00:24;;;;;;;17.03;13.07;;;9.20;99.90;;;;;;10318939;28;20258;-66
2023/12/17 11:05:29;;;;;;;21.57;13.47;;;9.20;99.90;;;;;;10319104;28;20225;-66
2023/12/17 11:10:38;;;;;;;21.27;14.50;;;9.20;99.90;;;;;;10313862;28;20202;-66
2023/12/17 11:15:41;;;;;;;18.97;12.93;;;9.20;99.90;;;;;;10318060;28;20221;-66
2023/12/17 11:20:49;;;;;;;17.17;13.27;;;9.20;99.90;;;;;;10317566;28;20201;-65
2023/12/17 11:25:55;;;;;;;14.27;12.20;;;9.30;99.90;;;;;;10314231;28;20225;-66
2023/12/17 11:30:59;;;;;;;15.97;11.63;;;9.30;99.90;;;;;;10322112;28;20315;-66
2023/12/17 11:36:06;;;;;;;13.77;11.50;;;9.30;99.90;;;;;;10317077;28;20232;-65
2023/12/17 11:41:10;;;;;;;16.00;11.87;;;9.30;99.90;;;;;;10320490;28;20205;-67
2023/12/17 11:46:15;;;;;;;16.27;13.50;;;9.30;99.90;;;;;;10323889;28;20205;-66
2023/12/17 11:51:26;;;;;;;17.37;13.80;;;9.40;99.90;;;;;;10323163;28;20202;-66
2023/12/17 11:56:31;;;;;;;16.50;13.57;;;9.40;99.90;;;;;;10322160;28;20689;-66
2023/12/17 12:01:35;;;;;;;15.93;12.80;;;9.50;99.90;;;;;;10318252;28;20221;-66
2023/12/17 12:06:40;;;;;;;18.17;14.30;;;9.50;99.90;;;;;;10322835;28;20734;-66
2023/12/17 12:11:44;;;;;;;17.13;13.57;;;9.50;99.90;;;;;;10323043;28;20300;-67
2023/12/17 12:16:47;;;;;;;17.57;14.47;;;9.50;99.90;;;;;;10319662;28;20668;-66
2023/12/17 12:21:52;;;;;;;17.63;13.20;;;9.50;99.90;;;;;;10316837;28;20598;-65
2023/12/17 12:26:56;;;;;;;16.13;13.97;;;9.50;99.90;;;;;;10320494;28;20264;-65
2023/12/17 12:32:00;;;;;;;16.13;13.10;;;9.50;99.90;;;;;;10319950;28;20234;-65
2023/12/17 12:37:06;;;;;;;14.33;12.63;;;9.60;99.90;;;;;;10319087;28;20226;-65
2023/12/17 12:42:17;;;;;;;14.47;11.67;;;9.50;99.90;;;;;;10320989;28;20264;-66
2023/12/17 12:47:22;;;;;;;14.23;11.50;;;9.50;99.90;;;;;;10324395;28;20193;-66
2023/12/17 12:52:27;;;;;;;13.50;11.40;;;9.50;99.90;;;;;;10326425;28;20295;-65
2023/12/17 12:57:31;;;;;;;14.00;11.23;;;9.50;99.90;;;;;;10322935;28;20304;-65
2023/12/17 13:02:37;;;;;;;11.47;9.97;;;9.50;99.90;;;;;;10327403;28;20276;-65
2023/12/17 13:07:43;;;;;;;12.23;10.27;;;9.50;99.90;;;;;;10323248;28;20585;-65
2023/12/17 13:12:46;;;;;;;11.50;10.10;;;9.50;99.90;;;;;;10325893;28;20234;-65
2023/12/17 13:17:50;;;;;;;12.90;10.70;;;9.50;99.90;;;;;;10324206;28;20327;-66
2023/12/17 13:22:55;;;;;;;13.23;10.43;;;9.50;99.90;;;;;;10324749;28;20249;-66
2023/12/17 13:28:00;;;;;;;15.27;10.40;;;9.40;99.90;;;;;;10319211;28;20252;-67
2023/12/17 13:33:04;;;;;;;14.57;10.57;;;9.40;99.90;;;;;;10301741;28;20279;-66
2023/12/17 13:38:09;;;;;;;13.93;11.10;;;9.40;99.90;;;;;;10298288;28;20591;-66
2023/12/17 13:43:13;;;;;;;16.97;10.77;;;9.40;99.90;;;;;;10327592;28;20225;-66
2023/12/17 13:48:17;;;;;;;14.60;10.00;;;9.40;99.90;;;;;;10323332;28;20607;-66
2023/12/17 13:53:22;;;;;;;12.77;8.97;;;9.30;99.90;;;;;;10317545;28;20268;-66
2023/12/17 13:58:27;;;;;;;15.80;10.33;;;9.30;99.90;;;;;;10316464;28;20257;-67
2023/12/17 14:03:30;;;;;;;13.17;9.10;;;9.30;99.90;;;;;;10326542;28;20348;-67
2023/12/17 14:08:36;;;;;;;13.30;9.03;;;9.30;99.90;;;;;;10337081;28;20228;-67
2023/12/17 14:13:39;;;;;;;16.20;9.60;;;9.20;99.90;;;;;;10335790;28;20722;-66
2023/12/17 14:18:43;;;;;;;15.90;9.60;;;9.20;99.90;;;;;;10330467;28;20250;-66
2023/12/17 14:23:50;;;;;;;14.73;9.80;;;9.20;99.90;;;;;;10329236;28;20222;-65
2023/12/17 14:28:54;;;;;;;13.03;9.80;;;9.20;99.90;;;;;;10328148;28;20202;-66
2023/12/17 14:34:00;;;;;;;15.20;10.20;;;9.20;99.90;;;;;;10327175;28;20289;-66
2023/12/17 14:39:11;;;;;;;13.60;9.73;;;9.20;99.90;;;;;;10290742;28;20256;-66
2023/12/17 14:44:16;;;;;;;14.13;9.70;;;9.20;99.90;;;;;;10289792;28;20687;-66
2023/12/17 14:49:20;;;;;;;14.43;10.33;;;9.20;99.90;;;;;;10333452;28;20248;-66
2023/12/17 14:54:25;;;;;;;17.43;10.03;;;9.30;99.90;;;;;;10303330;28;20253;-65
2023/12/17 14:59:36;;;;;;;19.60;10.60;;;9.30;99.90;;;;;;10276149;28;20284;-66
2023/12/17 15:04:40;;;;;;;13.43;9.97;;;9.30;99.90;;;;;;10332892;28;20276;-66
2023/12/17 15:09:46;;;;;;;15.53;10.57;;;9.30;99.90;;;;;;10331748;28;20241;-68
2023/12/17 15:14:50;;;;;;;13.93;10.33;;;9.30;99.90;;;;;;10275041;28;20642;-66
2023/12/17 15:19:54;;;;;;;17.67;10.63;;;9.30;99.90;;;;;;10308628;28;20548;-67
2023/12/17 15:24:59;;;;;;;15.53;9.90;;;9.30;99.90;;;;;;10331546;28;20253;-70
2023/12/17 15:30:03;;;;;;;16.87;10.10;;;9.30;99.90;;;;;;10300372;28;20535;-64
2023/12/17 15:35:08;;;;;;;15.57;10.57;;;9.20;99.90;;;;;;10281782;28;20233;-65
2023/12/17 15:40:14;;;;;;;13.70;10.37;;;9.20;99.90;;;;;;10323734;28;20283;-67
2023/12/17 15:45:17;;;;;;;14.33;9.83;;;9.20;99.90;;;;;;10325085;28;20689;-68
2023/12/17 15:50:21;;;;;;;14.70;10.27;;;9.20;99.90;;;;;;10324861;28;20225;-69
2023/12/17 15:55:26;;;;;;;14.03;10.50;;;9.20;99.90;;;;;;10321360;28;20217;-69
2023/12/17 16:00:30;;;;;;;15.30;9.80;;;9.10;99.90;;;;;;10317265;28;20221;-66
2023/12/17 16:05:33;;;;;;;14.87;11.10;;;9.10;99.90;;;;;;10314252;28;20960;-64
2023/12/17 16:10:38;;;;;;;11.70;8.80;;;9.30;99.90;;;;;;10324748;28;20229;-63
2023/12/17 16:15:42;;;;;;;12.33;8.37;;;9.30;99.90;;;;;;10329561;28;20787;-63
2023/12/17 16:20:47;;;;;;;12.40;8.57;;;9.20;99.90;;;;;;10312529;28;20249;-67
2023/12/17 16:25:52;;;;;;;14.63;9.40;;;9.20;99.90;;;;;;10287669;28;20264;-63
2023/12/17 16:30:55;;;;;;;14.43;8.53;;;9.20;99.90;;;;;;10320140;28;20210;-64
2023/12/17 16:36:00;;;;;;;15.40;9.07;;;9.10;99.90;;;;;;10322577;28;20241;-63
2023/12/17 16:41:05;;;;;;;13.30;9.10;;;9.00;99.90;;;;;;10319379;28;20713;-64
2023/12/17 16:46:09;;;;;;;15.17;9.60;;;9.00;99.90;;;;;;10321212;28;20241;-64
2023/12/17 16:51:16;;;;;;;12.20;8.73;;;8.90;99.90;;;;;;10321226;28;20205;-64
2023/12/17 16:56:23;;;;;;;12.87;9.20;;;8.90;99.90;;;;;;10289295;28;20576;-64
2023/12/17 17:01:29;;;;;;;11.63;8.40;;;8.80;99.90;;;;;;10317372;28;20205;-65
2023/12/17 17:06:34;;;;;;;15.63;8.40;;;8.80;99.90;;;;;;10287761;28;20244;-63
2023/12/17 17:11:39;;;;;;;13.70;9.17;;;8.70;99.90;;;;;;10317045;28;20280;-64
2023/12/17 17:16:43;;;;;;;14.27;9.03;;;8.70;99.90;;;;;;10321480;28;20279;-64
2023/12/17 17:21:48;;;;;;;12.63;9.93;;;8.60;99.90;;;;;;10320897;28;20276;-64
2023/12/17 17:26:54;;;;;;;13.50;10.17;;;8.60;99.90;;;;;;10321860;28;21648;-65
2023/12/17 17:31:57;;;;;;;14.30;9.80;;;8.50;99.90;;;;;;10323354;28;20233;-65
2023/12/17 17:37:01;;;;;;;11.50;8.97;;;8.50;99.90;;;;;;10325322;28;20256;-65
2023/12/17 17:42:06;;;;;;;16.13;9.73;;;8.50;99.90;;;;;;10331572;28;20236;-65
2023/12/17 17:47:09;;;;;;;15.20;12.07;;;8.40;99.90;;;;;;10327533;28;20205;-64
2023/12/17 17:52:13;;;;;;;13.90;10.07;;;8.50;99.90;;;;;;10323303;28;20229;-65
2023/12/17 17:57:18;;;;;;;17.10;10.30;;;8.50;99.90;;;;;;10327596;28;20600;-64
2023/12/17 18:02:21;;;;;;;14.50;9.97;;;8.50;99.90;;;;;;10328184;28;20230;-65
2023/12/17 18:07:25;;;;;;;13.00;9.50;;;8.40;99.90;;;;;;10321190;28;20197;-64
2023/12/17 18:12:30;;;;;;;10.87;9.27;;;8.40;99.90;;;;;;10324444;28;20261;-64
2023/12/17 18:17:34;;;;;;;12.07;9.77;;;8.40;99.90;;;;;;10324070;28;20606;-64
2023/12/17 18:22:37;;;;;;;11.83;9.67;;;8.30;99.90;;;;;;10336488;28;20221;-63
2023/12/17 18:27:42;;;;;;;14.10;11.40;;;8.30;99.90;;;;;;10334817;28;20245;-64
2023/12/17 18:32:46;;;;;;;14.93;12.83;;;8.30;99.90;;;;;;10333141;28;20230;-65
2023/12/17 18:37:50;;;;;;;16.20;13.03;;;8.30;99.90;;;;;;10335077;28;20229;-64
2023/12/17 18:42:55;;;;;;;17.17;13.00;;;8.30;99.90;;;;;;10329475;28;20225;-63
2023/12/17 18:47:59;;;;;;;20.77;15.70;;;8.20;99.90;;;;;;10334807;28;20205;-65
2023/12/17 18:53:03;;;;;;;18.90;14.03;;;8.20;99.90;;;;;;10331949;28;20279;-64
2023/12/17 18:58:07;;;;;;;18.00;14.80;;;8.30;99.90;;;;;;10327182;28;20218;-64
2023/12/17 19:03:11;;;;;;;18.20;14.40;;;8.20;99.90;;;;;;10328560;28;20627;-64
2023/12/17 19:08:15;;;;;;;18.00;14.40;;;8.10;99.90;;;;;;10313983;28;20217;-61
2023/12/17 19:13:20;;;;;;;18.63;13.50;;;8.10;99.90;;;;;;10268148;28;20256;-65
2023/12/17 19:18:23;;;;;;;18.33;12.20;;;8.10;99.90;;;;;;10290726;28;20280;-63
2023/12/17 19:23:27;;;;;;;16.63;11.80;;;8.10;99.90;;;;;;10324378;28;20271;-64
2023/12/17 19:28:32;;;;;;;14.73;10.40;;;8.10;99.90;;;;;;10321024;28;20204;-61
2023/12/17 19:33:35;;;;;;;11.83;9.73;;;8.20;99.90;;;;;;10321404;28;20276;-63
2023/12/17 19:38:41;;;;;;;11.50;9.27;;;8.20;99.90;;;;;;10322539;28;20225;-64
2023/12/17 19:43:46;;;;;;;13.73;10.07;;;8.30;99.90;;;;;;10330140;28;20561;-63
2023/12/17 19:48:49;;;;;;;14.70;8.67;;;8.40;99.90;;;;;;10333293;28;20238;-64
2023/12/17 19:53:53;;;;;;;9.20;8.17;;;8.40;99.90;;;;;;10324782;28;20292;-63
2023/12/17 19:58:58;;;;;;;11.30;7.90;;;8.50;99.90;;;;;;10325515;28;20217;-62
2023/12/17 20:04:02;;;;;;;9.63;7.07;;;8.50;99.90;;;;;;10326170;28;20279;-62
2023/12/17 20:09:06;;;;;;;12.13;7.60;;;8.50;99.90;;;;;;10323793;28;20220;-62
2023/12/17 20:14:11;;;;;;;9.50;6.83;;;8.60;99.90;;;;;;10330349;28;20640;-65
2023/12/17 20:19:14;;;;;;;7.73;5.93;;;8.60;99.90;;;;;;10319846;28;20696;-67
2023/12/17 20:24:18;;;;;;;8.67;6.00;;;8.70;99.90;;;;;;10293642;28;20222;-65
2023/12/17 20:29:23;;;;;;;8.03;5.97;;;8.70;99.90;;;;;;10330639;28;20220;-64
2023/12/17 20:34:27;;;;;;;7.27;5.20;;;8.80;99.90;;;;;;10322011;28;20229;-65
2023/12/17 20:39:31;;;;;;;8.63;5.60;;;8.90;99.90;;;;;;10314495;28;20264;-64
2023/12/17 20:44:36;;;;;;;9.10;6.87;;;8.90;99.90;;;;;;10323901;28;20213;-62
2023/12/17 20:49:40;;;;;;;14.77;10.20;;;9.00;99.90;;;;;;10332126;28;20205;-64
2023/12/17 20:54:43;;;;;;;6.23;5.00;;;9.00;99.90;;;;;;10322751;28;20271;-68
2023/12/17 20:59:56;;;;;;;7.10;5.17;;;9.00;99.90;;;;;;10325485;28;20770;-64
2023/12/17 21:05:00;;;;;;;19.30;12.13;;;9.10;99.90;;;;;;10318529;28;20281;-65
2023/12/17 21:10:05;;;;;;;13.90;8.67;;;9.10;99.90;;;;;;10317888;28;20251;-65
2023/12/17 21:15:12;;;;;;;6.70;5.23;;;9.20;99.90;;;;;;10325663;28;20225;-66
2023/12/17 21:20:16;;;;;;;7.43;5.07;;;9.20;99.90;;;;;;10314111;28;20253;-65
2023/12/17 21:25:20;;;;;;;5.67;3.70;;;9.30;99.90;;;;;;10318389;28;20312;-64
2023/12/17 21:30:25;;;;;;;6.80;3.83;;;9.30;99.90;;;;;;10266475;28;20201;-64
2023/12/17 21:35:31;;;;;;;4.97;3.27;;;9.40;99.90;;;;;;10317012;28;20230;-66
2023/12/17 21:40:34;;;;;;;4.00;3.07;;;9.40;99.90;;;;;;10324273;28;20303;-60
2023/12/17 21:45:39;;;;;;;4.73;3.13;;;9.40;99.90;;;;;;10279927;28;20221;-63
2023/12/17 21:50:44;;;;;;;5.27;2.80;;;9.40;99.90;;;;;;10295783;28;20260;-60
2023/12/17 21:55:48;;;;;;;4.80;2.80;;;9.40;99.90;;;;;;10319744;28;20222;-63
2023/12/17 22:00:53;;;;;;;3.30;2.77;;;9.50;99.90;;;;;;10322784;28;20272;-64
2023/12/17 22:05:56;;;;;;;3.33;2.40;;;9.50;99.90;;;;;;10323895;28;20225;-63
2023/12/17 22:11:03;;;;;;;4.83;3.00;;;9.50;99.90;;;;;;10322212;28;20276;-63
2023/12/17 22:16:13;;;;;;;5.13;2.83;;;9.50;99.90;;;;;;10328061;28;20253;-60
2023/12/17 22:21:18;;;;;;;3.73;2.40;;;9.50;99.90;;;;;;10324951;28;20272;-63
2023/12/17 22:26:23;;;;;;;4.23;2.40;;;9.50;99.90;;;;;;10300778;28;20202;-62
2023/12/17 22:31:29;;;;;;;4.53;2.50;;;9.50;99.90;;;;;;10322837;28;20596;-65
2023/12/17 22:36:33;;;;;;;3.30;2.67;;;9.50;99.90;;;;;;10335338;28;20209;-66
2023/12/17 22:41:39;;;;;;;4.53;2.77;;;9.50;99.90;;;;;;10329142;28;20229;-64
2023/12/17 22:46:44;;;;;;;4.97;2.70;;;9.50;99.90;;;;;;10297746;28;20205;-67
2023/12/17 22:51:48;;;;;;;3.83;2.57;;;9.50;99.90;;;;;;10323510;28;20214;-67
2023/12/17 22:56:51;;;;;;;4.40;2.60;;;9.50;99.90;;;;;;10327316;28;20582;-67
2023/12/17 23:01:56;;;;;;;4.40;2.50;;;9.50;99.90;;;;;;10330200;28;20252;-63
2023/12/17 23:07:00;;;;;;;4.00;2.90;;;9.40;99.90;;;;;;10336723;28;20213;-66
2023/12/17 23:12:03;;;;;;;3.50;2.67;;;9.40;99.90;;;;;;10328162;28;20249;-64
2023/12/17 23:17:08;;;;;;;3.63;2.57;;;9.40;99.90;;;;;;10334055;28;20202;-64
2023/12/17 23:22:12;;;;;;;4.37;2.67;;;9.30;99.90;;;;;;10328435;28;20229;-67
2023/12/17 23:27:15;;;;;;;5.40;3.00;;;9.30;99.90;;;;;;10327316;28;20206;-65
2023/12/17 23:32:20;;;;;;;4.87;3.40;;;9.30;99.90;;;;;;10332600;28;20325;-65
2023/12/17 23:37:33;;;;;;;3.83;2.70;;;9.20;99.90;;;;;;10332491;28;20256;-66
2023/12/17 23:42:36;;;;;;;3.73;3.10;;;9.20;99.90;;;;;;10330845;28;20287;-64
2023/12/17 23:47:41;;;;;;;5.27;3.40;;;9.20;99.90;;;;;;10333225;28;20546;-64
2023/12/17 23:52:45;;;;;;;6.10;3.50;;;9.10;99.90;;;;;;10327039;28;20220;-66
2023/12/17 23:57:49;;;;;;;6.00;4.50;;;9.00;99.90;;;;;;10332426;28;20290;-65
